createdAt,value
2017-08-29T00:00:26.188Z,72.8
2017-08-29T00:01:25.114Z,72.8
2017-08-29T00:02:24.175Z,72.9
2017-08-29T00:03:23.472Z,72.9
2017-08-29T00:04:22.919Z,72.9
2017-08-29T00:05:22.225Z,72.9
2017-08-29T00:06:21.031Z,73.1
2017-08-29T00:07:20.224Z,73.1
2017-08-29T00:08:19.669Z,73.2
2017-08-29T00:09:18.979Z,73.2
2017-08-29T00:10:17.923Z,73.1
2017-08-29T00:11:17.608Z,73.2
2017-08-29T00:12:16.415Z,73.1
2017-08-29T00:13:15.861Z,73.1
2017-08-29T00:14:14.939Z,73.1
2017-08-29T00:15:14.536Z,73.2
2017-08-29T00:16:13.485Z,73.2
2017-08-29T00:17:13.051Z,73.5
2017-08-29T00:18:12.125Z,73.5
2017-08-29T00:19:11.182Z,73.4
2017-08-29T00:20:10.484Z,73.4
2017-08-29T00:22:08.817Z,73.5
2017-08-29T00:23:07.876Z,73.5
2017-08-29T00:24:07.450Z,73.6
2017-08-29T00:25:06.778Z,73.7
2017-08-29T00:26:05.711Z,73.8
2017-08-29T00:27:05.153Z,73.8
2017-08-29T00:28:04.099Z,73.9
2017-08-29T00:29:03.546Z,73.9
2017-08-29T00:30:02.499Z,73.9
2017-08-29T00:31:01.809Z,74
2017-08-29T00:32:01.369Z,74.1
2017-08-29T00:33:00.199Z,74.2
2017-08-29T00:33:59.644Z,74.1
2017-08-29T00:34:58.974Z,74.2
2017-08-29T00:35:57.921Z,74.4
2017-08-29T00:36:56.979Z,74.5
2017-08-29T00:37:56.663Z,74.5
2017-08-29T00:40:54.397Z,74.6
2017-08-29T00:41:53.837Z,74.9
2017-08-29T00:42:52.782Z,75
2017-08-29T00:43:52.352Z,75.1
2017-08-29T00:44:51.169Z,75.1
2017-08-29T00:46:49.500Z,75.3
2017-08-29T00:47:48.932Z,75.2
2017-08-29T00:48:48.119Z,75.3
2017-08-29T00:49:47.443Z,75.2
2017-08-29T00:50:46.892Z,75.5
2017-08-29T00:51:45.704Z,75.5
2017-08-29T00:52:45.151Z,75.4
2017-08-29T00:53:44.578Z,75.3
2017-08-29T00:54:43.515Z,75.2
2017-08-29T00:55:43.102Z,75.2
2017-08-29T00:56:42.043Z,75.2
2017-08-29T00:57:40.868Z,75.2
2017-08-29T00:58:40.198Z,75.2
2017-08-29T00:59:39.629Z,75.3
2017-08-29T01:00:39.084Z,75.4
2017-08-29T01:01:37.767Z,75.5
2017-08-29T01:02:37.338Z,75.5
2017-08-29T01:03:36.909Z,75.4
2017-08-29T01:04:35.596Z,75.5
2017-08-29T01:05:35.047Z,75.5
2017-08-29T01:06:34.494Z,75.5
2017-08-29T01:07:33.188Z,75.5
2017-08-29T01:08:32.889Z,75.6
2017-08-29T01:09:31.834Z,75.6
2017-08-29T01:10:31.268Z,75.7
2017-08-29T01:11:30.328Z,75.8
2017-08-29T01:12:29.767Z,75.9
2017-08-29T01:13:28.817Z,76
2017-08-29T01:15:27.257Z,76.1
2017-08-29T01:16:26.612Z,76.1
2017-08-29T01:17:25.933Z,76.2
2017-08-29T01:18:25.011Z,76.3
2017-08-29T01:19:24.203Z,76.3
2017-08-29T01:20:23.138Z,76.4
2017-08-29T01:21:22.704Z,76.4
2017-08-29T01:22:22.024Z,76.5
2017-08-29T01:23:20.956Z,76.4
2017-08-29T01:24:20.393Z,76.5
2017-08-29T01:25:19.213Z,76.5
2017-08-29T01:26:18.539Z,76.5
2017-08-29T01:27:17.859Z,76.6
2017-08-29T01:28:17.293Z,76.5
2017-08-29T01:29:16.505Z,76.7
2017-08-29T01:30:15.446Z,76.8
2017-08-29T01:31:14.776Z,76.9
2017-08-29T01:32:14.342Z,77
2017-08-29T01:33:13.019Z,77
2017-08-29T01:34:12.579Z,77.1
2017-08-29T01:36:11.033Z,77.1
2017-08-29T01:37:10.352Z,77.1
2017-08-29T01:38:09.154Z,77.1
2017-08-29T01:39:08.744Z,77
2017-08-29T01:40:07.687Z,77.1
2017-08-29T01:41:06.990Z,77.1
2017-08-29T01:43:05.445Z,77
2017-08-29T01:44:05.016Z,77
2017-08-29T01:45:03.948Z,77
2017-08-29T01:46:03.275Z,77.6
2017-08-29T01:47:02.211Z,77.3
2017-08-29T01:48:01.270Z,77.2
2017-08-29T01:49:01.078Z,77.4
2017-08-29T01:49:59.899Z,77.4
2017-08-29T01:50:59.465Z,77.4
2017-08-29T01:52:57.668Z,77
2017-08-29T01:53:57.108Z,76.9
2017-08-29T01:54:56.042Z,76.9
2017-08-29T01:55:55.348Z,76.9
2017-08-29T01:56:54.785Z,76.9
2017-08-29T01:57:53.719Z,77
2017-08-29T01:58:53.042Z,77
2017-08-29T01:59:52.613Z,77
2017-08-29T02:00:51.440Z,76.9
2017-08-29T02:01:50.765Z,77
2017-08-29T02:02:49.955Z,77
2017-08-29T02:03:49.406Z,77
2017-08-29T02:04:48.601Z,77.1
2017-08-29T02:05:47.288Z,77.2
2017-08-29T02:06:46.473Z,77.2
2017-08-29T02:08:45.045Z,77.2
2017-08-29T02:09:44.729Z,77.3
2017-08-29T02:10:43.662Z,77.4
2017-08-29T02:11:42.595Z,77.5
2017-08-29T02:12:41.788Z,77.5
2017-08-29T02:13:41.236Z,77.5
2017-08-29T02:14:40.561Z,77.6
2017-08-29T02:15:39.878Z,77.7
2017-08-29T02:16:39.079Z,77.8
2017-08-29T02:17:38.529Z,77.8
2017-08-29T02:18:37.462Z,77.9
2017-08-29T02:19:36.538Z,77.8
2017-08-29T02:20:35.985Z,77.8
2017-08-29T02:21:35.184Z,77.8
2017-08-29T02:22:33.981Z,77.9
2017-08-29T02:23:33.548Z,78.1
2017-08-29T02:24:32.873Z,78.3
2017-08-29T02:25:32.083Z,78.3
2017-08-29T02:26:31.020Z,78.3
2017-08-29T02:28:29.605Z,78.3
2017-08-29T02:29:28.670Z,78.3
2017-08-29T02:30:27.733Z,78.4
2017-08-29T02:31:27.433Z,78.5
2017-08-29T02:32:26.489Z,78.5
2017-08-29T02:33:25.540Z,78.6
2017-08-29T02:34:24.738Z,78.6
2017-08-29T02:35:24.182Z,78.6
2017-08-29T02:36:23.396Z,78.8
2017-08-29T02:37:22.337Z,78.8
2017-08-29T02:38:21.764Z,78.7
2017-08-29T02:39:20.820Z,78.6
2017-08-29T02:40:20.263Z,78.7
2017-08-29T02:41:19.591Z,78.9
2017-08-29T02:42:18.279Z,79.2
2017-08-29T02:43:17.828Z,79.2
2017-08-29T02:44:17.141Z,79.2
2017-08-29T02:45:16.206Z,79.4
2017-08-29T02:46:15.141Z,79.4
2017-08-29T02:47:14.577Z,79.2
2017-08-29T02:48:13.645Z,79.2
2017-08-29T02:49:13.208Z,79.2
2017-08-29T02:50:12.010Z,79.3
2017-08-29T02:51:11.451Z,79.3
2017-08-29T02:52:10.770Z,79.2
2017-08-29T02:53:09.703Z,79.1
2017-08-29T02:54:08.889Z,79.4
2017-08-29T02:55:08.337Z,79.5
2017-08-29T02:56:07.660Z,79.9
2017-08-29T02:57:06.587Z,79.9
2017-08-29T02:58:05.781Z,79.9
2017-08-29T02:59:05.095Z,79.7
2017-08-29T03:00:04.155Z,79.7
2017-08-29T03:01:03.595Z,79.7
2017-08-29T03:02:02.769Z,79.7
2017-08-29T03:03:01.948Z,79.7
2017-08-29T03:04:01.131Z,79.7
2017-08-29T03:05:00.602Z,79.7
2017-08-29T03:05:59.406Z,79.7
2017-08-29T03:06:58.458Z,79.6
2017-08-29T03:07:57.765Z,79.6
2017-08-29T03:08:57.074Z,79.6
2017-08-29T03:09:56.500Z,79.5
2017-08-29T03:10:55.422Z,79.5
2017-08-29T03:11:54.852Z,79.5
2017-08-29T03:13:53.299Z,79.5
2017-08-29T03:14:52.606Z,79.5
2017-08-29T03:16:50.803Z,79.5
2017-08-29T03:17:49.988Z,79.6
2017-08-29T03:18:49.187Z,79.6
2017-08-29T03:19:48.755Z,79.6
2017-08-29T03:20:47.574Z,79.6
2017-08-29T03:21:46.891Z,79.5
2017-08-29T03:22:46.327Z,79.5
2017-08-29T03:23:45.260Z,79.6
2017-08-29T03:24:44.700Z,79.5
2017-08-29T03:26:43.019Z,79.6
2017-08-29T03:27:41.966Z,79.9
2017-08-29T03:28:41.286Z,80
2017-08-29T03:29:40.846Z,80.1
2017-08-29T03:30:39.918Z,80
2017-08-29T03:31:38.866Z,80
2017-08-29T03:32:38.306Z,80
2017-08-29T03:33:37.370Z,80
2017-08-29T03:34:36.674Z,80
2017-08-29T03:35:35.618Z,80.2
2017-08-29T03:36:35.178Z,80.2
2017-08-29T03:37:33.996Z,80.2
2017-08-29T03:38:33.302Z,80.2
2017-08-29T03:39:32.488Z,80.2
2017-08-29T03:40:31.811Z,80.2
2017-08-29T03:41:30.988Z,80.2
2017-08-29T03:42:30.425Z,80.4
2017-08-29T03:43:29.362Z,80.5
2017-08-29T03:44:28.812Z,80.6
2017-08-29T03:45:27.618Z,80.7
2017-08-29T03:46:26.923Z,80.8
2017-08-29T03:47:26.360Z,80.9
2017-08-29T03:48:25.797Z,81
2017-08-29T03:49:24.735Z,81.2
2017-08-29T03:50:24.059Z,81.2
2017-08-29T03:51:23.142Z,81.2
2017-08-29T03:52:22.077Z,81.3
2017-08-29T03:52:52.582Z,81.3
2017-08-29T03:53:22.959Z,81.4
2017-08-29T03:53:53.702Z,81.4
2017-08-29T03:55:19.943Z,81.4
2017-08-29T03:56:19.005Z,81.7
2017-08-29T03:57:18.316Z,81.7
2017-08-29T03:58:17.760Z,82
2017-08-29T03:59:16.698Z,82.3
2017-08-29T04:00:16.131Z,82.4
2017-08-29T04:01:14.952Z,82.3
2017-08-29T04:02:14.519Z,82.3
2017-08-29T04:03:13.450Z,82.2
2017-08-29T04:04:12.626Z,82.1
2017-08-29T04:05:11.930Z,82
2017-08-29T04:06:10.985Z,82
2017-08-29T04:07:10.419Z,82
2017-08-29T04:08:09.349Z,82
2017-08-29T04:09:08.525Z,82
2017-08-29T04:10:07.964Z,82.1
2017-08-29T04:11:07.150Z,82.2
2017-08-29T04:12:06.081Z,82.2
2017-08-29T04:13:05.394Z,82.1
2017-08-29T04:14:04.825Z,82.1
2017-08-29T04:15:04.020Z,82.1
2017-08-29T04:17:02.600Z,82.2
2017-08-29T04:18:01.521Z,82.2
2017-08-29T04:19:00.955Z,82.2
2017-08-29T04:19:59.759Z,82.3
2017-08-29T04:20:59.329Z,82.3
2017-08-29T04:21:58.270Z,82.4
2017-08-29T04:22:57.833Z,82.8
2017-08-29T04:23:28.070Z,82.8
2017-08-29T04:23:58.079Z,82.8
2017-08-29T04:24:28.690Z,82.8
2017-08-29T04:25:55.177Z,82.8
2017-08-29T04:26:54.600Z,83.1
2017-08-29T04:27:53.655Z,83.2
2017-08-29T04:28:52.837Z,83.1
2017-08-29T04:29:52.020Z,83.1
2017-08-29T04:30:51.333Z,83
2017-08-29T04:31:50.260Z,83
2017-08-29T04:32:49.697Z,83.1
2017-08-29T04:33:49.145Z,83.3
2017-08-29T04:34:48.215Z,83.1
2017-08-29T04:35:47.020Z,83
2017-08-29T04:36:46.348Z,83.1
2017-08-29T04:37:45.927Z,83.1
2017-08-29T04:38:44.624Z,83.1
2017-08-29T04:39:43.809Z,83.1
2017-08-29T04:40:42.990Z,83.1
2017-08-29T04:41:42.294Z,83.5
2017-08-29T04:42:41.737Z,83.7
2017-08-29T04:43:40.921Z,83.7
2017-08-29T04:44:11.043Z,83.7
2017-08-29T04:45:39.290Z,83.5
2017-08-29T04:46:38.614Z,83.5
2017-08-29T04:47:38.053Z,83.5
2017-08-29T04:48:36.992Z,83.5
2017-08-29T04:49:35.925Z,83.5
2017-08-29T04:50:35.364Z,83.5
2017-08-29T04:51:34.293Z,83.3
2017-08-29T04:52:33.472Z,83.3
2017-08-29T04:53:33.027Z,83.2
2017-08-29T04:54:32.225Z,83.2
2017-08-29T04:55:30.908Z,83
2017-08-29T04:56:30.475Z,82.7
2017-08-29T04:57:29.800Z,82.6
2017-08-29T04:58:29.092Z,82.4
2017-08-29T04:59:28.146Z,82.3
2017-08-29T05:00:27.448Z,82.2
2017-08-29T05:01:26.390Z,82.2
2017-08-29T05:02:25.957Z,82.2
2017-08-29T05:03:24.767Z,81.8
2017-08-29T05:04:24.189Z,81.6
2017-08-29T05:05:23.367Z,81.6
2017-08-29T05:06:22.685Z,81.5
2017-08-29T05:07:21.853Z,81.4
2017-08-29T05:08:21.037Z,81.3
2017-08-29T05:09:20.467Z,81.3
2017-08-29T05:10:19.153Z,81.3
2017-08-29T05:11:18.579Z,81.3
2017-08-29T05:12:17.758Z,81.3
2017-08-29T05:13:17.196Z,81.3
2017-08-29T05:14:16.124Z,81.2
2017-08-29T05:15:15.436Z,81.1
2017-08-29T05:16:14.871Z,81
2017-08-29T05:17:13.539Z,81
2017-08-29T05:18:12.727Z,80.8
2017-08-29T05:19:12.164Z,80.7
2017-08-29T05:21:10.740Z,80.7
2017-08-29T05:22:09.426Z,80.7
2017-08-29T05:23:08.874Z,80.7
2017-08-29T05:24:07.926Z,80.6
2017-08-29T05:25:07.379Z,80.5
2017-08-29T05:26:06.829Z,80.5
2017-08-29T05:27:05.768Z,80.3
2017-08-29T05:28:04.956Z,80.2
2017-08-29T05:29:04.523Z,80.1
2017-08-29T05:30:03.326Z,79.9
2017-08-29T05:31:02.754Z,79.6
2017-08-29T05:32:01.821Z,79.2
2017-08-29T05:34:00.394Z,78.5
2017-08-29T05:34:59.573Z,78.1
2017-08-29T05:35:59.022Z,77.3
2017-08-29T05:36:57.822Z,77
2017-08-29T05:37:57.509Z,76.5
2017-08-29T05:38:56.060Z,76
2017-08-29T05:39:55.369Z,76
2017-08-29T05:40:54.557Z,76
2017-08-29T05:41:53.997Z,74.5
2017-08-29T05:43:52.315Z,73.3
2017-08-29T05:44:51.406Z,73.1
2017-08-29T05:45:50.708Z,72.6
2017-08-29T05:46:50.138Z,71.9
2017-08-29T05:47:49.317Z,71.7
2017-08-29T05:48:48.619Z,71
2017-08-29T05:49:47.184Z,70.6
2017-08-29T05:50:46.744Z,70.2
2017-08-29T05:51:45.675Z,70.2
2017-08-29T05:52:45.110Z,69.5
2017-08-29T05:53:44.173Z,69.4
2017-08-29T05:54:43.612Z,69.1
2017-08-29T05:55:43.045Z,68.7
2017-08-29T05:56:41.849Z,68.2
2017-08-29T05:57:40.901Z,68.2
2017-08-29T05:58:11.768Z,68.2
2017-08-29T05:58:41.760Z,68.2
2017-08-29T05:59:39.938Z,67.5
2017-08-29T06:00:38.992Z,67.3
2017-08-29T06:01:38.056Z,66.1
2017-08-29T06:02:37.654Z,65.7
2017-08-29T06:03:36.462Z,65.9
2017-08-29T06:04:35.774Z,65
2017-08-29T06:05:35.081Z,64.6
2017-08-29T06:06:34.305Z,63.9
2017-08-29T06:07:33.619Z,63.7
2017-08-29T06:08:04.373Z,63.7
2017-08-29T06:08:34.501Z,63.2
2017-08-29T06:09:05.256Z,63.2
2017-08-29T06:09:35.508Z,63.2
2017-08-29T06:10:05.894Z,63.2
2017-08-29T06:10:36.053Z,62.9
2017-08-29T06:11:06.572Z,62.9
2017-08-29T06:12:29.669Z,62.9
2017-08-29T06:13:28.593Z,62.7
2017-08-29T06:14:27.896Z,61.9
2017-08-29T06:15:27.333Z,61.9
2017-08-29T06:16:26.276Z,61.7
2017-08-29T06:17:25.374Z,61.2
2017-08-29T06:19:23.955Z,60.3
2017-08-29T06:20:23.280Z,60.2
2017-08-29T06:21:22.458Z,60.3
2017-08-29T06:22:21.630Z,60.5
2017-08-29T06:23:20.568Z,60.3
2017-08-29T06:24:19.881Z,59.7
2017-08-29T06:25:19.316Z,59.4
2017-08-29T06:26:18.247Z,58.8
2017-08-29T06:27:17.565Z,59.6
2017-08-29T06:28:16.869Z,59.5
2017-08-29T06:29:15.927Z,59.1
2017-08-29T06:30:15.233Z,58.7
2017-08-29T06:31:14.798Z,58.7
2017-08-29T06:32:13.600Z,58.7
2017-08-29T06:33:13.287Z,58.7
2017-08-29T06:34:12.217Z,57.5
2017-08-29T06:35:11.520Z,56.9
2017-08-29T06:36:10.334Z,56.5
2017-08-29T06:37:09.530Z,56.7
2017-08-29T06:38:09.090Z,56.5
2017-08-29T06:39:08.523Z,56.9
2017-08-29T06:40:07.337Z,55.6
2017-08-29T06:41:06.652Z,55.1
2017-08-29T06:42:05.828Z,55
2017-08-29T06:43:05.407Z,55.3
2017-08-29T06:44:04.335Z,54.4
2017-08-29T06:45:03.525Z,54.7
2017-08-29T06:46:02.962Z,55
2017-08-29T06:47:02.522Z,54.6
2017-08-29T06:48:01.326Z,54.1
2017-08-29T06:49:00.409Z,54.1
2017-08-29T06:49:30.544Z,54.1
2017-08-29T06:50:00.923Z,54.1
2017-08-29T06:50:58.730Z,54.3
2017-08-29T06:51:58.040Z,52.8
2017-08-29T06:52:57.599Z,53
2017-08-29T06:53:56.784Z,53.8
2017-08-29T06:54:55.839Z,53.6
2017-08-29T06:55:55.182Z,53.4
2017-08-29T06:56:54.742Z,53.3
2017-08-29T06:57:53.418Z,52.5
2017-08-29T06:58:52.971Z,52.6
2017-08-29T06:59:52.154Z,52.5
2017-08-29T07:00:22.267Z,52.5
2017-08-29T07:00:52.384Z,53
2017-08-29T07:01:23.142Z,53
2017-08-29T07:02:50.005Z,52.5
2017-08-29T07:03:48.946Z,52.5
2017-08-29T07:04:48.368Z,52.7
2017-08-29T07:06:46.818Z,53
2017-08-29T07:07:46.382Z,52.6
2017-08-29T07:08:45.442Z,53
2017-08-29T07:09:44.373Z,52.4
2017-08-29T07:10:43.936Z,52.2
2017-08-29T07:11:43.254Z,52.3
2017-08-29T07:12:42.449Z,52.7
2017-08-29T07:13:41.253Z,52.6
2017-08-29T07:14:40.443Z,52.5
2017-08-29T07:15:39.762Z,52.5
2017-08-29T07:16:38.956Z,52.1
2017-08-29T07:17:38.398Z,52.8
2017-08-29T07:18:37.590Z,52.7
2017-08-29T07:19:37.020Z,52.7
2017-08-29T07:20:36.466Z,52.4
2017-08-29T07:21:35.530Z,52.1
2017-08-29T07:22:34.612Z,52.1
2017-08-29T07:23:34.182Z,52.1
2017-08-29T07:24:32.868Z,51.6
2017-08-29T07:25:32.689Z,51.8
2017-08-29T07:26:31.752Z,51.3
2017-08-29T07:27:31.190Z,51.9
2017-08-29T07:28:30.025Z,51.4
2017-08-29T07:29:29.468Z,51.3
2017-08-29T07:30:28.802Z,51.4
2017-08-29T07:31:28.239Z,51
2017-08-29T07:32:27.336Z,50.2
2017-08-29T07:33:26.778Z,50.4
2017-08-29T07:34:25.703Z,50.2
2017-08-29T07:35:25.138Z,50
2017-08-29T07:36:24.184Z,48.7
2017-08-29T07:37:23.362Z,49.3
2017-08-29T07:38:22.799Z,49.2
2017-08-29T07:40:20.989Z,49.2
2017-08-29T07:42:19.861Z,49.1
2017-08-29T07:43:19.047Z,49
2017-08-29T07:44:18.636Z,48
2017-08-29T07:45:17.706Z,48.2
2017-08-29T07:46:17.027Z,47.8
2017-08-29T07:47:15.963Z,48.3
2017-08-29T07:48:15.259Z,48.3
2017-08-29T07:49:14.444Z,49.1
2017-08-29T07:50:14.258Z,49.4
2017-08-29T07:51:13.074Z,48.6
2017-08-29T07:52:12.513Z,48.7
2017-08-29T07:53:11.853Z,49.3
2017-08-29T07:54:11.034Z,48.7
2017-08-29T07:55:10.238Z,48.5
2017-08-29T07:57:08.944Z,47.6
2017-08-29T07:58:08.379Z,47.6
2017-08-29T07:59:07.309Z,47.4
2017-08-29T08:00:06.630Z,47.5
2017-08-29T08:01:05.940Z,47.8
2017-08-29T08:02:05.115Z,47.3
2017-08-29T08:03:04.298Z,47.6
2017-08-29T08:04:03.615Z,47.5
2017-08-29T08:05:03.071Z,46.7
2017-08-29T08:06:02.641Z,46.8
2017-08-29T08:07:01.593Z,47.7
2017-08-29T08:08:00.876Z,47.9
2017-08-29T08:08:59.938Z,47.9
2017-08-29T08:09:59.502Z,47.3
2017-08-29T08:10:59.061Z,47.4
2017-08-29T08:11:58.122Z,46.4
2017-08-29T08:12:57.441Z,46.9
2017-08-29T08:13:56.756Z,46.9
2017-08-29T08:14:56.207Z,46.3
2017-08-29T08:15:55.398Z,47
2017-08-29T08:16:54.712Z,46
2017-08-29T08:17:53.765Z,46.4
2017-08-29T08:18:53.070Z,46.5
2017-08-29T08:19:52.625Z,46.8
2017-08-29T08:20:51.558Z,46.8
2017-08-29T08:24:49.044Z,47
2017-08-29T08:25:48.358Z,47.4
2017-08-29T08:26:18.609Z,47.4
2017-08-29T08:26:49.230Z,47.8
2017-08-29T08:27:19.601Z,47.8
2017-08-29T08:27:49.989Z,46.1
2017-08-29T08:28:20.236Z,46.1
2017-08-29T08:30:44.597Z,46.9
2017-08-29T08:31:43.780Z,47
2017-08-29T08:32:43.083Z,47.6
2017-08-29T08:33:42.267Z,47.7
2017-08-29T08:34:41.569Z,47.7
2017-08-29T08:35:40.878Z,47.7
2017-08-29T08:36:40.063Z,47.8
2017-08-29T08:37:39.371Z,47.8
2017-08-29T08:38:38.550Z,47.1
2017-08-29T08:39:09.426Z,47.1
2017-08-29T08:39:39.553Z,47.2
2017-08-29T08:40:10.300Z,47.2
2017-08-29T08:41:36.664Z,47.8
2017-08-29T08:42:36.224Z,45.7
2017-08-29T08:43:35.278Z,47.1
2017-08-29T08:44:34.340Z,46.5
2017-08-29T08:45:34.288Z,46.6
2017-08-29T08:46:33.492Z,46.5
2017-08-29T08:47:32.807Z,46.5
2017-08-29T08:48:32.122Z,46.6
2017-08-29T08:49:31.554Z,46.6
2017-08-29T08:50:30.368Z,46.6
2017-08-29T08:51:29.802Z,47.2
2017-08-29T08:52:29.243Z,47.8
2017-08-29T08:53:28.425Z,48.1
2017-08-29T08:54:27.481Z,47.8
2017-08-29T08:55:27.168Z,47.5
2017-08-29T08:56:26.237Z,47.8
2017-08-29T08:57:25.809Z,47.5
2017-08-29T08:58:24.872Z,47
2017-08-29T08:59:24.430Z,47.4
2017-08-29T09:00:24.008Z,46.9
2017-08-29T09:01:23.203Z,47.5
2017-08-29T09:02:22.383Z,47.8
2017-08-29T09:03:21.949Z,48.2
2017-08-29T09:04:21.013Z,48.2
2017-08-29T09:05:20.566Z,49.1
2017-08-29T09:06:19.754Z,48.8
2017-08-29T09:07:19.188Z,48.9
2017-08-29T09:08:18.500Z,47.9
2017-08-29T09:09:17.442Z,48.2
2017-08-29T09:11:16.262Z,46.9
2017-08-29T09:12:15.579Z,47.7
2017-08-29T09:13:15.141Z,48.1
2017-08-29T09:16:13.282Z,47.8
2017-08-29T09:18:11.598Z,48.2
2017-08-29T09:19:11.167Z,48
2017-08-29T09:20:10.222Z,48.4
2017-08-29T09:20:40.590Z,48.4
2017-08-29T09:21:10.833Z,48.4
2017-08-29T09:22:08.762Z,48.4
2017-08-29T09:23:08.208Z,49.3
2017-08-29T09:24:07.390Z,49.5
2017-08-29T09:25:07.206Z,49.3
2017-08-29T09:26:06.389Z,49.1
2017-08-29T09:27:05.687Z,49.4
2017-08-29T09:28:04.895Z,48.4
2017-08-29T09:29:04.452Z,49.2
2017-08-29T09:30:03.527Z,48.8
2017-08-29T09:31:02.841Z,48.3
2017-08-29T09:32:02.288Z,48.3
2017-08-29T09:33:01.602Z,48.6
2017-08-29T09:34:01.179Z,48.7
2017-08-29T09:35:00.223Z,48.5
2017-08-29T09:35:59.665Z,48.8
2017-08-29T09:36:59.222Z,49.4
2017-08-29T09:37:57.905Z,49.4
2017-08-29T09:38:57.591Z,49.7
2017-08-29T09:39:57.040Z,49.7
2017-08-29T09:40:56.480Z,49.3
2017-08-29T09:41:56.038Z,48.9
2017-08-29T09:42:54.964Z,49.2
2017-08-29T09:43:54.277Z,49.5
2017-08-29T09:44:53.341Z,49.3
2017-08-29T09:45:53.156Z,49.1
2017-08-29T09:46:52.462Z,48.5
2017-08-29T09:47:51.776Z,48.4
2017-08-29T09:48:51.195Z,48.8
2017-08-29T09:49:50.624Z,48.8
2017-08-29T09:50:49.939Z,48.7
2017-08-29T09:51:49.252Z,49.4
2017-08-29T09:52:48.689Z,49.7
2017-08-29T09:53:48.136Z,49.5
2017-08-29T09:54:47.067Z,49.5
2017-08-29T09:55:46.757Z,49.7
2017-08-29T09:56:45.820Z,49.8
2017-08-29T09:57:45.121Z,50
2017-08-29T09:58:44.805Z,50
2017-08-29T09:59:43.739Z,50.6
2017-08-29T10:00:43.814Z,50.9
2017-08-29T10:01:42.493Z,50.9
2017-08-29T10:02:41.806Z,51.2
2017-08-29T10:03:41.490Z,51.3
2017-08-29T10:04:41.053Z,50.8
2017-08-29T10:05:40.370Z,50.6
2017-08-29T10:06:39.561Z,50.8
2017-08-29T10:07:39.013Z,50.6
2017-08-29T10:08:38.331Z,50.6
2017-08-29T10:09:37.501Z,50.2
2017-08-29T10:10:37.454Z,49.9
2017-08-29T10:11:36.257Z,49.9
2017-08-29T10:12:35.566Z,49.9
2017-08-29T10:13:35.122Z,50.3
2017-08-29T10:14:34.529Z,50.5
2017-08-29T10:15:33.585Z,50.5
2017-08-29T10:16:33.139Z,50.8
2017-08-29T10:18:32.093Z,50
2017-08-29T10:19:31.658Z,49.7
2017-08-29T10:20:30.598Z,49.8
2017-08-29T10:21:30.280Z,49.8
2017-08-29T10:23:28.845Z,50.1
2017-08-29T10:24:28.409Z,50.2
2017-08-29T10:26:27.229Z,49.6
2017-08-29T10:27:26.418Z,50.2
2017-08-29T10:29:25.107Z,50
2017-08-29T10:30:24.547Z,50.7
2017-08-29T10:31:23.849Z,50.7
2017-08-29T10:32:23.036Z,49.2
2017-08-29T10:33:22.765Z,48.7
2017-08-29T10:34:22.071Z,49
2017-08-29T10:35:21.386Z,49.4
2017-08-29T10:36:20.822Z,49.7
2017-08-29T10:37:20.244Z,51
2017-08-29T10:38:19.559Z,51
2017-08-29T10:39:19.123Z,50.9
2017-08-29T10:40:18.677Z,51.2
2017-08-29T10:41:17.991Z,50.7
2017-08-29T10:42:17.178Z,51
2017-08-29T10:43:16.508Z,50.8
2017-08-29T10:44:15.947Z,50.8
2017-08-29T10:45:15.262Z,50.7
2017-08-29T10:47:14.225Z,50.7
2017-08-29T10:48:13.676Z,50.1
2017-08-29T10:49:13.107Z,50
2017-08-29T10:50:12.540Z,50
2017-08-29T10:51:11.970Z,49.3
2017-08-29T10:52:11.276Z,49.3
2017-08-29T10:53:10.596Z,48.7
2017-08-29T10:54:09.907Z,48
2017-08-29T10:55:09.471Z,48
2017-08-29T10:56:09.041Z,48.2
2017-08-29T10:57:08.350Z,48.2
2017-08-29T10:58:07.302Z,49
2017-08-29T10:58:37.552Z,49
2017-08-29T11:00:06.440Z,48.9
2017-08-29T11:01:05.879Z,48.6
2017-08-29T11:02:05.068Z,49
2017-08-29T11:03:04.748Z,49.1
2017-08-29T11:06:02.970Z,49.4
2017-08-29T11:07:02.405Z,49.7
2017-08-29T11:08:01.711Z,49.2
2017-08-29T11:09:01.031Z,48.6
2017-08-29T11:10:00.721Z,48
2017-08-29T11:10:59.907Z,48.2
2017-08-29T11:11:59.349Z,48.5
2017-08-29T11:12:58.660Z,48.6
2017-08-29T11:13:57.846Z,48.3
2017-08-29T11:14:57.912Z,48.6
2017-08-29T11:15:57.094Z,47.8
2017-08-29T11:16:56.412Z,47.3
2017-08-29T11:17:56.232Z,47.7
2017-08-29T11:18:55.669Z,47.9
2017-08-29T11:19:54.854Z,47.6
2017-08-29T11:20:54.046Z,47.8
2017-08-29T11:21:53.863Z,47.8
2017-08-29T11:22:53.308Z,47.8
2017-08-29T11:23:52.748Z,48.2
2017-08-29T11:24:51.935Z,47.7
2017-08-29T11:25:51.376Z,48.1
2017-08-29T11:26:50.558Z,48.3
2017-08-29T11:27:49.868Z,48
2017-08-29T11:28:49.439Z,48.2
2017-08-29T11:29:48.993Z,47.6
2017-08-29T11:30:48.321Z,47.9
2017-08-29T11:31:47.753Z,48.2
2017-08-29T11:32:47.322Z,47.8
2017-08-29T11:33:46.768Z,47
2017-08-29T11:34:46.206Z,47.1
2017-08-29T11:35:45.637Z,46.7
2017-08-29T11:36:45.084Z,46.9
2017-08-29T11:37:44.535Z,46.8
2017-08-29T11:38:43.975Z,46.7
2017-08-29T11:39:43.152Z,46.7
2017-08-29T11:40:42.465Z,46
2017-08-29T11:41:42.282Z,46.9
2017-08-29T11:42:41.583Z,47.1
2017-08-29T11:43:41.025Z,47.1
2017-08-29T11:44:40.973Z,46.4
2017-08-29T11:45:40.149Z,46.7
2017-08-29T11:46:39.801Z,47.3
2017-08-29T11:47:39.372Z,47.7
2017-08-29T11:48:38.430Z,47.3
2017-08-29T11:49:37.989Z,46.3
2017-08-29T11:50:37.553Z,46.6
2017-08-29T11:52:36.499Z,46.4
2017-08-29T11:53:35.808Z,46.6
2017-08-29T11:54:35.252Z,46.5
2017-08-29T11:55:34.577Z,46.5
2017-08-29T11:56:34.413Z,46.2
2017-08-29T11:57:33.868Z,46.2
2017-08-29T11:58:04.108Z,46.2
2017-08-29T11:58:34.354Z,46.2
2017-08-29T11:59:32.532Z,46.9
2017-08-29T12:00:31.713Z,46.7
2017-08-29T12:01:31.277Z,46.5
2017-08-29T12:02:30.837Z,46.7
2017-08-29T12:03:30.036Z,46.3
2017-08-29T12:04:29.854Z,45.4
2017-08-29T12:05:29.165Z,45.4
2017-08-29T12:06:28.718Z,45.6
2017-08-29T12:07:28.284Z,46.3
2017-08-29T12:08:27.474Z,47.1
2017-08-29T12:08:57.707Z,47.1
2017-08-29T12:09:28.206Z,47.3
2017-08-29T12:09:58.829Z,47.3
2017-08-29T12:12:25.338Z,45.6
2017-08-29T12:13:24.906Z,45.8
2017-08-29T12:14:24.479Z,45.4
2017-08-29T12:15:23.796Z,45.4
2017-08-29T12:17:23.003Z,45.3
2017-08-29T12:18:22.567Z,45.4
2017-08-29T12:19:22.007Z,45
2017-08-29T12:20:21.317Z,45.3
2017-08-29T12:22:20.533Z,45
2017-08-29T12:23:19.965Z,44.8
2017-08-29T12:25:18.655Z,45.4
2017-08-29T12:26:17.985Z,45.1
2017-08-29T12:27:17.431Z,44.6
2017-08-29T12:28:17.500Z,44.6
2017-08-29T12:30:16.463Z,45.2
2017-08-29T12:31:16.034Z,43.7
2017-08-29T12:32:15.469Z,44.1
2017-08-29T12:33:14.936Z,44.1
2017-08-29T12:34:14.246Z,44.1
2017-08-29T12:35:13.556Z,44.6
2017-08-29T12:36:13.489Z,44.1
2017-08-29T12:37:12.678Z,44.6
2017-08-29T12:40:11.389Z,43.4
2017-08-29T12:41:10.831Z,43.2
2017-08-29T12:42:10.262Z,43.6
2017-08-29T12:43:09.661Z,43.9
2017-08-29T12:44:09.479Z,44
2017-08-29T12:45:08.919Z,43.9
2017-08-29T12:46:08.232Z,43.2
2017-08-29T12:47:07.544Z,43.4
2017-08-29T12:48:06.998Z,43.6
2017-08-29T12:49:07.066Z,42.7
2017-08-29T12:50:06.148Z,43.2
2017-08-29T12:52:05.474Z,43.6
2017-08-29T12:53:05.041Z,43.8
2017-08-29T12:54:04.471Z,43.5
2017-08-29T12:55:03.907Z,43.5
2017-08-29T12:56:03.712Z,43.2
2017-08-29T12:57:03.151Z,43.7
2017-08-29T13:00:01.740Z,43.8
2017-08-29T13:02:00.580Z,43.2
2017-08-29T13:03:00.025Z,43.3
2017-08-29T13:03:59.586Z,43
2017-08-29T13:04:59.162Z,42.9
2017-08-29T13:05:58.726Z,43.4
2017-08-29T13:06:58.296Z,43.6
2017-08-29T13:08:57.413Z,43.2
2017-08-29T13:09:56.600Z,43.2
2017-08-29T13:10:56.649Z,43.3
2017-08-29T13:11:55.980Z,43.3
2017-08-29T13:12:55.429Z,42.6
2017-08-29T13:13:54.738Z,42.6
2017-08-29T13:14:54.792Z,42.5
2017-08-29T13:15:54.114Z,42.8
2017-08-29T13:16:53.419Z,42.5
2017-08-29T13:17:53.477Z,42.7
2017-08-29T13:18:52.786Z,42.7
2017-08-29T13:19:52.090Z,43.3
2017-08-29T13:20:52.057Z,43.7
2017-08-29T13:21:51.357Z,43
2017-08-29T13:22:50.793Z,44.2
2017-08-29T13:25:49.652Z,43.7
2017-08-29T13:26:49.221Z,43.1
2017-08-29T13:27:48.670Z,43.1
2017-08-29T13:28:47.991Z,43.1
2017-08-29T13:29:47.807Z,42.8
2017-08-29T13:31:47.011Z,42.5
2017-08-29T13:32:46.202Z,42.5
2017-08-29T13:33:45.634Z,43.3
2017-08-29T13:34:45.585Z,43
2017-08-29T13:36:44.285Z,43.5
2017-08-29T13:37:43.980Z,43.7
2017-08-29T13:38:43.799Z,43.9
2017-08-29T13:39:43.233Z,43.3
2017-08-29T13:40:42.433Z,43.4
2017-08-29T13:41:42.255Z,43.7
2017-08-29T13:42:41.556Z,43.4
2017-08-29T13:43:41.361Z,42.5
2017-08-29T13:45:40.824Z,41.6
2017-08-29T13:46:40.393Z,41.6
2017-08-29T13:47:39.708Z,41.2
2017-08-29T13:48:39.137Z,41.6
2017-08-29T13:51:37.991Z,40.2
2017-08-29T13:52:37.555Z,40.3
2017-08-29T13:53:36.868Z,40.7
2017-08-29T13:54:36.553Z,41.1
2017-08-29T13:59:34.566Z,40.5
2017-08-29T14:00:33.873Z,40.8
2017-08-29T14:01:33.683Z,40.8